Mesa, AZ (85201)

6:16 AM MST on May 27, 2015 (GMT -0700)
Beeline | | Change Station
CLOSE
Current Station
Personal Weather Station
Location: Mesa, AZ
Elevation: 1235 ft
Nearby Weather Stations

Elev 1235 ft 33.45 °N, 111.84 °W | Updated 20 seconds ago

Mostly Cloudy
Mostly Cloudy
69.4 °F
Feels Like 69.4 °F
N
2.0
Wind Variable Wind from East
Gusts 4.0 mph

Today
High -- | Low -- °F
--% Chance of Precip.
Yesterday
High -- | Low -- °F
Precip. -- in
5:20 AM 7:28 PM
Waxing Gibbous, 67% visible
Pressure 29.90 in
Visibility 40.0 miles
Clouds Mostly Cloudy 20000 ft
Dew Point 44 °F
Humidity 40%
Rainfall 0.00 in
Snow Depth Not available.
UV 0 out of 12
Pollen 4.60 out of 12
Air Quality Not available.
Flu Activity Local Activity
METAR KFFZ 271247Z 03006KT 40SM BKN200 22/03 A2990 RMK WIND ESTIMATED

More Conditions Fewer Conditions

Pressure 29.90 in
Visibility 40.0 miles
Clouds Mostly Cloudy 20000 ft
Dew Point 44 °F
Humidity 40%
Rainfall 0.00 in
Snow Depth Not available.
UV 0 out of 12
Pollen 4.60 out of 12
Air Quality Not available.
Flu Activity Local Activity
METAR KFFZ 271247Z 03006KT 40SM BKN200 22/03 A2990 RMK WIND ESTIMATED

More Conditions Fewer Conditions

10-Day Weather Forecast

Almanac

Astronomy

May. 27, 2015 Rise Set
Actual Time
Civil Twilight
Nautical Twilight
Astronomical Twilight
Moon
Length of Visible Light
Length of Day
Tomorrow will be .
, % of the Moon is Illuminated

Today's Extremes

State Highs State Lows

Community

WunderPhotos

Upload Photos

1,824,664 photos uploaded!

WunderBlogs® & News

Nearby

Air Quality

  Air Quality AQ Index Pollutant
Not available.

Snow Depth

Station Depth Elevation

Earthquake Activity

City Distance Mag. Time & Date
Minimum magnitude displayed is 2.5.

Coastal Water Temperatures

Place Temperature

Stations

Nearby Weather Stations

Station Location Temp. Windchill Dew Point Humidity Wind Precip. Elev Updated Type